In Rescue
 
Open Full Screen Window  High Contrast Mode
May 25, 2022 10:24 PM EDT
Weather Information
Wind Direction
  ---
Wind Speed
  00 kt (0 mph)
Wind Gust
  00 kt (0 mph)
Altimeter
30.29 in
Visibility
10 SM
Temperature
13° C
55° F
Dewpoint
08° C
46° F
Humidity
72%
Sky Condition
Clear
VFR

METAR KCDA 260224Z AUTO 00000KT 10SM CLR 13/08 A3029 RMK AO2 T01310076

FAA Disclaimer: The data displayed is for advisory purposes only and is not to be used for flight planning or operations.